Terminal Aerodrome Forecast
Issued by NWS Wilmington, OH

Current Version | Previous Version | Text Only | Print | Product List | Glossary Off
Versions: 1 2 3 4 5 6 7 8 9 10 11 12 13 14 15 16 17 18 19 20 21

405
FTUS41 KILN 242340
TAFILN
TAF
KILN 242340Z 2500/2524 11008KT 6SM -SHRA VCTS OVC045CB
     FM250200 13008KT P6SM VCTS OVC060CB
     FM250700 18009KT P6SM VCTS OVC008CB
     FM250800 18009KT P6SM VCTS OVC010CB
     FM251000 19008KT P6SM VCSH OVC009
     FM251200 18008KT 6SM -SHRA OVC008
     FM251400 20007KT 5SM -SHRA OVC011
     FM251700 25007KT 5SM -SHRA OVC011
     FM251900 27009KT 5SM -SHRA OVC008
     FM252300 28013KT P6SM OVC010=

USA.gov is the U.S. government's official web portal to all federal, state and local government web resources and services.